KMPO

Pocono Mountains Municipal Airport

Mount Pocono, Pennsylvania, USA
METAR KMPO 170753Z AUTO 27003KT 10SM OVC012 M05/M06 A3014 RMK AO2 SLP233 T10501056
Observed Flight Rules
Dec-17 @ 07:53 UTC (21 minutes ago) Marginal Visual Flight Rules
Wind Visibility Clouds
270° at 3 knots 10 miles
  • Overcast at 1,200' AGL
Temperatures Readings
Current -5°C / 23°F
Dewpoint -6°C / 21°F
Humidity 93%
Altimeter 30.14" Hg
Pressure 1023.3 hPa
Elevation 577
METAR KMPO 170753Z AUTO 27003KT 10SM OVC012 M05/M06 A3014 RMK AO2 SLP233 T10501056
Observed Flight Rules
Dec-17 @ 07:53 UTC
(21 minutes ago)
MVFR
Wind Visibility
270° at 3 knots 10 miles
Clouds
  • Overcast at 1,200' AGL
Temperature Dewpoint
-5°C / 23°F -6°C / 21°F
Humidity Altimeter Pressure
93% 30.14" Hg 1023.3 hPa